createdAt,value
2022-10-25T00:04:54.510Z,100.00
2022-10-25T00:10:01.236Z,100.00
2022-10-25T00:15:06.234Z,100.00
2022-10-25T00:20:13.779Z,100.00
2022-10-25T00:25:22.746Z,100.00
2022-10-25T00:30:26.638Z,100.00
2022-10-25T00:35:32.135Z,100.00
2022-10-25T00:40:36.005Z,100.00
2022-10-25T00:45:40.033Z,100.00
2022-10-25T00:50:49.298Z,100.00
2022-10-25T00:55:56.961Z,100.00
2022-10-25T01:01:01.126Z,100.00
2022-10-25T01:06:07.801Z,100.00
2022-10-25T01:11:11.556Z,100.00
2022-10-25T01:16:21.570Z,100.00
2022-10-25T01:27:50.808Z,100.00
2022-10-25T01:33:03.337Z,100.00
2022-10-25T01:38:30.727Z,100.00
2022-10-25T01:43:40.186Z,100.00
2022-10-25T01:48:47.973Z,100.00
2022-10-25T01:53:53.049Z,100.00
2022-10-25T01:59:13.780Z,100.00
2022-10-25T02:04:22.721Z,100.00
2022-10-25T02:09:29.781Z,100.00
2022-10-25T02:14:37.196Z,100.00
2022-10-25T02:19:44.267Z,100.00
2022-10-25T02:24:48.744Z,100.00
2022-10-25T02:29:54.782Z,100.00
2022-10-25T02:35:00.036Z,100.00
2022-10-25T02:40:04.122Z,100.00
2022-10-25T02:45:09.801Z,100.00
2022-10-25T02:50:14.822Z,100.00
2022-10-25T02:55:18.606Z,100.00
2022-10-25T03:00:22.765Z,100.00
2022-10-25T03:05:27.945Z,100.00
2022-10-25T03:10:31.701Z,100.00
2022-10-25T03:15:35.209Z,100.00
2022-10-25T03:20:40.840Z,100.00
2022-10-25T03:25:44.713Z,100.00
2022-10-25T03:30:48.341Z,100.00
2022-10-25T03:35:54.046Z,100.00
2022-10-25T03:40:58.120Z,100.00
2022-10-25T03:46:01.752Z,100.00
2022-10-25T03:51:07.165Z,100.00
2022-10-25T03:56:10.956Z,100.00
2022-10-25T04:01:15.173Z,100.00
2022-10-25T04:06:20.732Z,100.00
2022-10-25T04:11:24.599Z,100.00
2022-10-25T04:16:28.264Z,100.00
2022-10-25T04:21:33.428Z,100.00
2022-10-25T04:26:37.851Z,100.00
2022-10-25T04:31:41.875Z,100.00
2022-10-25T04:36:47.465Z,100.00
2022-10-25T04:41:51.423Z,100.00
2022-10-25T04:46:55.420Z,100.00
2022-10-25T04:52:01.597Z,100.00
2022-10-25T04:57:07.452Z,100.00
2022-10-25T05:02:11.523Z,100.00
2022-10-25T05:07:18.575Z,100.00
2022-10-25T05:12:22.963Z,100.00
2022-10-25T05:17:26.493Z,100.00
2022-10-25T05:22:33.367Z,100.00
2022-10-25T05:27:39.488Z,100.00
2022-10-25T05:32:43.996Z,100.00
2022-10-25T05:51:33.343Z,100.00
2022-10-25T05:56:40.955Z,100.00
2022-10-25T06:01:46.721Z,100.00
2022-10-25T06:06:53.329Z,100.00
2022-10-25T06:11:56.886Z,100.00
2022-10-25T06:17:00.639Z,100.00
2022-10-25T06:22:05.792Z,100.00
2022-10-25T06:27:09.411Z,100.00
2022-10-25T06:32:13.039Z,100.00
2022-10-25T06:37:18.609Z,100.00
2022-10-25T06:42:22.262Z,100.00
2022-10-25T06:54:51.958Z,100.00
2022-10-25T06:59:55.960Z,100.00
2022-10-25T07:04:59.786Z,100.00
2022-10-25T07:10:05.293Z,100.00
2022-10-25T07:15:10.135Z,100.00
2022-10-25T07:20:13.969Z,100.00
2022-10-25T07:25:19.073Z,100.00
2022-10-25T07:30:23.057Z,100.00
2022-10-25T07:35:26.777Z,100.00
2022-10-25T07:40:32.122Z,100.00
2022-10-25T07:45:36.073Z,100.00
2022-10-25T07:50:44.977Z,100.00
2022-10-25T07:55:53.224Z,100.00
2022-10-25T08:01:02.232Z,100.00
2022-10-25T08:06:06.844Z,100.00
2022-10-25T08:11:12.157Z,100.00
2022-10-25T08:16:16.144Z,100.00
2022-10-25T08:21:19.698Z,100.00
2022-10-25T08:26:26.932Z,100.00
2022-10-25T08:31:30.676Z,100.00
2022-10-25T08:36:34.799Z,100.00
2022-10-25T08:41:50.235Z,100.00
2022-10-25T08:47:00.685Z,100.00
2022-10-25T08:52:07.339Z,100.00
2022-10-25T08:57:19.071Z,100.00
2022-10-25T09:02:27.082Z,100.00
2022-10-25T09:07:47.093Z,100.00
2022-10-25T09:12:58.324Z,100.00
2022-10-25T09:18:05.291Z,100.00
2022-10-25T09:23:14.869Z,100.00
2022-10-25T09:28:25.169Z,100.00
2022-10-25T09:33:30.706Z,100.00
2022-10-25T09:38:43.290Z,100.00
2022-10-25T09:49:36.530Z,100.00
2022-10-25T09:54:43.382Z,100.00
2022-10-25T09:59:50.590Z,100.00
2022-10-25T10:04:56.022Z,100.00
2022-10-25T10:10:02.457Z,100.00
2022-10-25T10:22:32.864Z,100.00
2022-10-25T10:27:36.288Z,100.00
2022-10-25T10:45:18.996Z,100.00
2022-10-25T10:50:25.940Z,100.00
2022-10-25T10:55:31.541Z,100.00
2022-10-25T11:08:03.952Z,100.00
2022-10-25T11:13:15.195Z,100.00
2022-10-25T11:18:34.815Z,100.00
2022-10-25T11:23:48.750Z,100.00
2022-10-25T11:28:58.627Z,100.00
2022-10-25T11:34:09.814Z,100.00
2022-10-25T11:47:51.003Z,100.00
2022-10-25T11:53:17.977Z,100.00
2022-10-25T11:58:36.586Z,100.00
2022-10-25T12:03:53.722Z,100.00
2022-10-25T12:09:05.652Z,100.00
2022-10-25T12:14:13.117Z,100.00
2022-10-25T12:19:19.581Z,98.96
2022-10-25T12:24:27.069Z,98.88
2022-10-25T12:29:37.250Z,97.93
2022-10-25T12:34:43.469Z,98.30
2022-10-25T12:39:48.276Z,96.38
2022-10-25T12:45:04.111Z,95.24
2022-10-25T12:50:27.767Z,94.94
2022-10-25T12:55:39.880Z,94.61
2022-10-25T13:00:48.364Z,94.03
2022-10-25T13:06:16.915Z,94.12
2022-10-25T13:11:33.853Z,94.86
2022-10-25T13:16:37.468Z,94.70
2022-10-25T13:22:13.547Z,95.07
2022-10-25T13:27:27.547Z,94.59
2022-10-25T13:32:32.029Z,94.50
2022-10-25T13:37:41.563Z,95.13
2022-10-25T13:42:48.454Z,94.79
2022-10-25T13:47:54.156Z,95.32
2022-10-25T13:53:03.912Z,95.10
2022-10-25T13:58:37.297Z,95.14
2022-10-25T14:03:51.864Z,95.18
2022-10-25T14:09:00.120Z,94.47
2022-10-25T14:14:08.729Z,92.88
2022-10-25T14:19:17.116Z,92.17
2022-10-25T14:24:21.355Z,93.26
2022-10-25T14:29:26.506Z,93.87
2022-10-25T14:34:32.829Z,94.51
2022-10-25T14:39:36.227Z,95.07
2022-10-25T14:44:46.972Z,96.42
2022-10-25T14:49:52.561Z,97.54
2022-10-25T14:54:59.484Z,97.67
2022-10-25T15:00:05.410Z,98.17
2022-10-25T15:05:19.084Z,98.50
2022-10-25T15:10:40.906Z,98.16
2022-10-25T15:15:46.834Z,98.05
2022-10-25T15:20:54.482Z,99.02
2022-10-25T15:26:01.823Z,99.32
2022-10-25T15:31:07.496Z,100.00
2022-10-25T15:36:23.519Z,100.00
2022-10-25T15:41:28.221Z,100.00
2022-10-25T15:46:33.460Z,100.00
2022-10-25T15:51:40.487Z,100.00
2022-10-25T15:56:45.139Z,100.00
2022-10-25T16:01:50.914Z,100.00
2022-10-25T16:06:56.302Z,100.00
2022-10-25T16:12:00.232Z,100.00
2022-10-25T16:17:08.958Z,100.00
2022-10-25T16:22:14.692Z,100.00
2022-10-25T16:27:18.303Z,100.00
2022-10-25T16:32:21.903Z,100.00
2022-10-25T16:37:26.918Z,100.00
2022-10-25T16:42:32.113Z,100.00
2022-10-25T16:47:37.401Z,100.00
2022-10-25T16:52:42.422Z,100.00
2022-10-25T16:57:46.027Z,100.00
2022-10-25T17:02:50.062Z,100.00
2022-10-25T17:07:55.574Z,100.00
2022-10-25T17:13:03.340Z,100.00
2022-10-25T17:18:07.049Z,100.00
2022-10-25T17:23:12.046Z,100.00
2022-10-25T17:28:15.755Z,100.00
2022-10-25T17:33:19.591Z,100.00
2022-10-25T17:38:24.969Z,100.00
2022-10-25T17:43:29.127Z,100.00
2022-10-25T17:48:33.267Z,100.00
2022-10-25T17:53:38.249Z,100.00
2022-10-25T17:58:42.688Z,100.00
2022-10-25T18:03:46.461Z,100.00
2022-10-25T18:08:56.173Z,100.00
2022-10-25T18:14:00.950Z,100.00
2022-10-25T18:19:07.415Z,100.00
2022-10-25T18:24:14.916Z,100.00
2022-10-25T18:29:18.957Z,100.00
2022-10-25T18:34:22.448Z,100.00
2022-10-25T18:39:27.864Z,100.00
2022-10-25T18:44:31.447Z,100.00
2022-10-25T18:49:35.125Z,100.00
2022-10-25T18:54:40.048Z,100.00
2022-10-25T18:59:43.760Z,100.00
2022-10-25T19:04:47.390Z,100.00
2022-10-25T19:09:52.935Z,100.00
2022-10-25T19:14:56.791Z,100.00
2022-10-25T19:20:01.072Z,100.00
2022-10-25T19:25:08.088Z,100.00
2022-10-25T19:30:13.503Z,100.00
2022-10-25T19:35:17.455Z,100.00
2022-10-25T19:40:22.718Z,100.00
2022-10-25T19:45:27.415Z,100.00
2022-10-25T19:50:32.167Z,100.00
2022-10-25T19:55:37.956Z,100.00
2022-10-25T20:00:42.010Z,100.00
2022-10-25T20:05:45.651Z,100.00
2022-10-25T20:10:50.994Z,100.00
2022-10-25T20:15:55.930Z,100.00
2022-10-25T20:21:03.162Z,100.00
2022-10-25T20:26:16.533Z,100.00
2022-10-25T20:31:23.168Z,100.00
2022-10-25T20:36:27.245Z,100.00
2022-10-25T20:41:33.229Z,100.00
2022-10-25T20:46:37.067Z,100.00
2022-10-25T20:51:40.898Z,100.00
2022-10-25T20:56:46.573Z,100.00
2022-10-25T21:01:50.620Z,100.00
2022-10-25T21:06:54.948Z,100.00
2022-10-25T21:11:59.992Z,100.00
2022-10-25T21:17:04.022Z,100.00
2022-10-25T21:22:07.961Z,100.00
2022-10-25T21:27:13.765Z,100.00
2022-10-25T21:32:17.792Z,100.00
2022-10-25T21:37:22.243Z,100.00
2022-10-25T21:42:28.001Z,100.00
2022-10-25T21:47:31.790Z,100.00
2022-10-25T21:52:36.440Z,100.00
2022-10-25T21:57:42.260Z,100.00
2022-10-25T22:02:46.221Z,100.00
2022-10-25T22:07:50.416Z,100.00
2022-10-25T22:12:57.532Z,100.00
2022-10-25T22:18:01.563Z,100.00
2022-10-25T22:23:05.701Z,100.00
2022-10-25T22:28:10.756Z,100.00
2022-10-25T22:33:14.551Z,100.00
2022-10-25T22:38:18.099Z,100.00
2022-10-25T22:43:23.123Z,100.00
2022-10-25T22:48:26.919Z,100.00
2022-10-25T22:53:31.247Z,100.00
2022-10-25T22:58:38.362Z,100.00
2022-10-25T23:03:44.613Z,100.00
2022-10-25T23:08:48.985Z,100.00
2022-10-25T23:13:54.652Z,100.00
2022-10-25T23:18:58.859Z,100.00
2022-10-25T23:24:02.822Z,100.00
2022-10-25T23:29:08.034Z,100.00
2022-10-25T23:34:12.750Z,100.00
2022-10-25T23:39:16.755Z,100.00
2022-10-25T23:44:22.156Z,100.00
2022-10-25T23:49:25.786Z,100.00
2022-10-25T23:54:30.000Z,100.00
2022-10-25T23:59:35.074Z,100.00
